Metar Cercanos

 

LEPA - Palma De Mallorc, Spain
Distance from station: ONO 38km
Actualización: 11/12/2018 15:00
Few Clouds
Few Clouds
 Viento del SO
Viento: SO 17 km/h
Temperatura: 16°C
Rocío: 13°C
Humedad: 83%
Barómetro: 1021 hPa
Clouds: Few Clouds
Visibility: 10 km
Cloud details: Few Clouds 549 m
2018/12/11 14:00 LEPA 111400Z 23009KT 9999 FEW018 16/13 Q1021 NOSIG
LEMH - Mahon/Menorca Is, Spain
Distance from station: ENE 105km
Actualización: 11/12/2018 15:00
Parcialmente nuboso
Parcialmente nuboso
 Viento del O
Viento: O 15 km/h
Temperatura: 15°C
Rocío: 9°C
Humedad: 68%
Barómetro: 1020 hPa
Clouds: Parcialmente nuboso
Visibility: 10 km
Cloud details: Parcialmente nuboso 914 m
2018/12/11 14:00 LEMH 111400Z 27008KT 240V310 9999 SCT030 15/09 Q1020
 
LEIB - Ibiza/Es Codola, Spain
Distance from station: OSO 165km
Actualización: 11/12/2018 15:00
Parcialmente nuboso
Parcialmente nuboso
 Viento del SSO
Viento: SSO 15 km/h
Temperatura: 17°C
Rocío: 12°C
Humedad: 73%
Barómetro: 1021 hPa
Clouds: Parcialmente nuboso
Visibility: 10 km
Cloud details: Few Clouds 549 m
Parcialmente nuboso 671 m
2018/12/11 14:00 LEIB 111400Z 21008KT 180V250 9999 FEW018 SCT022 17/12 Q1021 NOSIG
LEBL - Barcelona Airpor, Spain
Distance from station: NNO 225km
Actualización: 11/12/2018 15:00
Few Clouds
Few Clouds
 Viento del SSO
Viento: SSO 9 km/h
Temperatura: 14°C
Rocío: 7°C
Humedad: 63%
Barómetro: 1020 hPa
Clouds: Few Clouds
Visibility: 10 km
Cloud details: Few Clouds 853 m
2018/12/11 14:00 LEBL 111400Z 21005KT 170V240 9999 FEW028 14/07 Q1020 NOSIG
 
LEVC - Valencia (civ/Mi, Spain
Distance from station: NO 188km
Actualización: 11/12/2018 15:00
Despejado
Despejado
 Viento del varies
Viento: varies 2 km/h
Temperatura: 17°C
Rocío: 5°C
Humedad: 45%
Barómetro: 1020 hPa
Resumen: Despejado
Visibility: greater than 10 km
2018/12/11 14:00 LEVC 111400Z VRB01KT CAVOK 17/05 Q1020 NOSIG
LEGE - Gerona/Costa Bra, Spain
Distance from station: N 276km
Actualización: 11/12/2018 15:00
Few Clouds
Few Clouds
 Viento del S
Viento: S 9 km/h
Temperatura: 13°C
Rocío: 9°C
Humedad: 77%
Barómetro: 1020 hPa
Clouds: Few Clouds
Visibility: 10 km
Cloud details: Few Clouds 1097 m
2018/12/11 14:00 LEGE 111400Z 17005KT 130V210 9999 FEW036 13/09 Q1020
 
LEAL - Alicante/El Alte, Spain
Distance from station: OSO 344km
Actualización: 11/12/2018 15:00
Despejado
Despejado
 Viento del SO
Viento: SO 13 km/h
Temperatura: 17°C
Rocío: 9°C
Humedad: 59%
Barómetro: 1021 hPa
Resumen: Despejado
Visibility: greater than 10 km
2018/12/11 14:00 LEAL 111400Z 23007KT 180V290 CAVOK 17/09 Q1021 NOSIG
LEAM - Almeria Airport, Spain
Distance from station: SSO 56km
Actualización: 11/12/2018 15:00
Few Clouds
Few Clouds
 Viento del SSO
Viento: SSO 22 km/h
Temperatura: 17°C
Rocío: 12°C
Humedad: 73%
Barómetro: 1021 hPa
Clouds: Few Clouds
Visibility: 10 km
Cloud details: Few Clouds 914 m
2018/12/11 14:00 LEAM 111400Z 21012KT 9999 FEW030 17/12 Q1021
 
LEZG - Zaragoza (mil/Ci, Spain
Distance from station: NO 431km
Actualización: 11/12/2018 15:00
Despejado
Despejado
 Viento del varies
Viento: varies 4 km/h
Temperatura: 11°C
Rocío: 3°C
Humedad: 58%
Barómetro: 1021 hPa
Resumen: Despejado
Visibility: greater than 10 km
2018/12/11 14:00 LEZG 111400Z VRB02KT CAVOK 11/03 Q1021
LEMD - Madrid/Barajas, Spain
Distance from station: ONO 234km
Actualización: 11/12/2018 15:00
Despejado
Despejado
 Viento del varies
Viento: varies 2 km/h
Temperatura: 13°C
Rocío: 1°C
Humedad: 44%
Barómetro: 1022 hPa
Resumen: Despejado
Visibility: greater than 10 km
2018/12/11 14:00 LEMD 111400Z VRB01KT CAVOK 13/01 Q1022 NOSIG
 
LEGR - Granada Airport, Spain
Distance from station: OSO 62km
Actualización: 11/12/2018 15:00
Despejado
Despejado
 Viento del varies
Viento: varies 2 km/h
Temperatura: 17°C
Rocío: 7°C
Humedad: 52%
Barómetro: 1022 hPa
Resumen: Despejado
Visibility: greater than 10 km
2018/12/11 14:00 LEGR 111400Z VRB01KT CAVOK 17/07 Q1022
LEMG - Malaga (civ/Mil), Spain
Distance from station: OSO 227km
Actualización: 11/12/2018 15:00
Few Clouds
Few Clouds
 Viento del O
Viento: O 9 km/h
Temperatura: 18°C
Rocío: 12°C
Humedad: 68%
Barómetro: 1023 hPa
Clouds: Few Clouds
Visibility: 10 km
Cloud details: Few Clouds 762 m
2018/12/11 14:00 LEMG 111400Z 27005KT 220V300 9999 FEW025 18/12 Q1023 NOSIG
 
LEZL - Sevilla (civ/Mil, Spain
Distance from station: S 318km
Actualización: 11/12/2018 15:00
Muy nuboso
Muy nuboso
 Viento del varies
Viento: varies 2 km/h
Temperatura: 17°C
Rocío: 11°C
Humedad: 68%
Barómetro: 1023 hPa
Clouds: Muy nuboso
Visibility: 10 km
Cloud details: Parcialmente nuboso 610 m
Muy nuboso 1372 m
2018/12/11 14:00 LEZL 111400Z VRB01KT 9999 SCT020 BKN045 17/11 Q1023 NOSIG
LEVT - Vitoria, Spain
Distance from station: NO 226km
Actualización: 11/12/2018 15:00
Despejado
Despejado
 Viento del calm
Viento: Calma
Temperatura: 8°C
Rocío: 4°C
Humedad: 76%
Barómetro: 1020 hPa
Resumen: Despejado
Visibility: greater than 10 km
2018/12/11 14:00 LEVT 111400Z 00000KT CAVOK 08/04 Q1020
 
LEBB - Bilbao/Sondica, Spain
Distance from station: NNO 235km
Actualización: 11/12/2018 15:00
Despejado
Despejado
 Viento del varies
Viento: varies 4 km/h
Temperatura: 16°C
Rocío: 7°C
Humedad: 55%
Barómetro: 1020 hPa
Resumen: Despejado
Visibility: greater than 10 km
2018/12/11 14:00 LEBB 111400Z VRB02KT CAVOK 16/07 Q1020 NOSIG
LESO - San Sebastian/Fu, Spain
Distance from station: N 231km
Actualización: 11/12/2018 15:00
Despejado
Despejado
 Viento del varies
Viento: varies 4 km/h
Temperatura: 13°C
Rocío: 6°C
Humedad: 63%
Barómetro: 1020 hPa
Resumen: Despejado
Visibility: greater than 10 km
2018/12/11 14:00 LESO 111400Z VRB02KT CAVOK 13/06 Q1020
 
LEVD - Valladolid(Mil/C, Spain
Distance from station: ONO 239km
Actualización: 11/12/2018 15:00
Despejado
Despejado
 Viento del SO
Viento: SO 6 km/h
Temperatura: 11°C
Rocío: 3°C
Humedad: 58%
Barómetro: 1022 hPa
Resumen: Despejado
Visibility: greater than 10 km
2018/12/11 14:00 LEVD 111400Z 23003KT 200V280 CAVOK 11/03 Q1022
LESA - Salamanca (civ/M, Spain
Distance from station: ONO 349km
Actualización: 11/12/2018 15:00
Despejado
Despejado
 Viento del O
Viento: O 11 km/h
Temperatura: 13°C
Rocío: 2°C
Humedad: 47%
Barómetro: 1022 hPa
Resumen: Despejado
Visibility: greater than 10 km
2018/12/11 14:00 LESA 111400Z 28006KT CAVOK 13/02 Q1022
 
LEXJ - Santander/Paraya, Spain
Distance from station: NNO 247km
Actualización: 11/12/2018 15:00
Despejado
Despejado
 Viento del calm
Viento: Calma
Temperatura: 14°C
Rocío: 6°C
Humedad: 59%
Barómetro: 1020 hPa
Resumen: Despejado
Visibility: greater than 10 km
2018/12/11 14:00 LEXJ 111400Z 00000KT CAVOK 14/06 Q1020
LEAS - Asturias/Aviles, Spain
Distance from station: NO 214km
Actualización: 11/12/2018 15:00
Despejado
Despejado
 Viento del calm
Viento: Calma
Temperatura: 14°C
Rocío: 7°C
Humedad: 63%
Barómetro: 1020 hPa
Resumen: Despejado
Visibility: greater than 10 km
2018/12/11 14:00 LEAS 111400Z 00000KT CAVOK 14/07 Q1020 NOSIG
 
LECO - La Coruna/Alvedr, Spain
Distance from station: ONO 222km
Actualización: 11/12/2018 15:00
Parcialmente nuboso
Parcialmente nuboso
 Viento del SSO
Viento: SSO 11 km/h
Temperatura: 15°C
Rocío: 11°C
Humedad: 77%
Barómetro: 1021 hPa
Clouds: Parcialmente nuboso
Visibility: 10 km
Cloud details: Few Clouds 914 m
Parcialmente nuboso 1067 m
2018/12/11 14:00 LECO 111400Z 21006KT 160V280 9999 FEW030 SCT035 15/11 Q1021 NOSIG
LEVX - Vigo/Peinador, Spain
Distance from station: O 214km
Actualización: 11/12/2018 15:00
Muy nuboso
Muy nuboso
 Viento del S
Viento: S 9 km/h
Temperatura: 13°C
Rocío: 9°C
Humedad: 77%
Barómetro: 1022 hPa
Clouds: Muy nuboso
Visibility: 10 km
Cloud details: Muy nuboso 640 m
2018/12/11 14:00 LEVX 111400Z 19005KT 120V230 9999 BKN021 13/09 Q1022 NOSIG